sensor_id;sensor_type;location;lat;lon;timestamp;P1;durP1;ratioP1;P2;durP2;ratioP2
9176;SDS011;4623;54.310;10.112;2022-10-23T00:01:25;6.87;;;5.57;;
9176;SDS011;4623;54.310;10.112;2022-10-23T00:03:54;8.97;;;5.13;;
9176;SDS011;4623;54.310;10.112;2022-10-23T00:06:24;9.83;;;5.43;;
9176;SDS011;4623;54.310;10.112;2022-10-23T00:08:50;9.90;;;5.53;;
9176;SDS011;4623;54.310;10.112;2022-10-23T00:11:17;6.77;;;5.07;;
9176;SDS011;4623;54.310;10.112;2022-10-23T00:13:45;7.67;;;5.67;;
9176;SDS011;4623;54.310;10.112;2022-10-23T00:16:11;8.00;;;4.97;;
9176;SDS011;4623;54.310;10.112;2022-10-23T00:18:37;6.77;;;5.60;;
9176;SDS011;4623;54.310;10.112;2022-10-23T00:21:04;11.40;;;7.10;;
9176;SDS011;4623;54.310;10.112;2022-10-23T00:23:31;10.00;;;5.63;;
9176;SDS011;4623;54.310;10.112;2022-10-23T00:25:56;8.50;;;5.87;;
9176;SDS011;4623;54.310;10.112;2022-10-23T00:28:22;10.80;;;5.90;;
9176;SDS011;4623;54.310;10.112;2022-10-23T00:30:48;7.30;;;5.60;;
9176;SDS011;4623;54.310;10.112;2022-10-23T00:33:13;8.57;;;5.73;;
9176;SDS011;4623;54.310;10.112;2022-10-23T00:35:40;5.60;;;4.73;;
9176;SDS011;4623;54.310;10.112;2022-10-23T00:38:06;6.23;;;5.33;;
9176;SDS011;4623;54.310;10.112;2022-10-23T00:40:32;12.20;;;6.00;;
9176;SDS011;4623;54.310;10.112;2022-10-23T00:42:58;8.07;;;6.27;;
9176;SDS011;4623;54.310;10.112;2022-10-23T00:45:24;11.10;;;6.37;;
9176;SDS011;4623;54.310;10.112;2022-10-23T00:47:52;12.50;;;6.50;;
9176;SDS011;4623;54.310;10.112;2022-10-23T00:50:19;8.37;;;5.23;;
9176;SDS011;4623;54.310;10.112;2022-10-23T00:52:49;8.87;;;5.40;;
9176;SDS011;4623;54.310;10.112;2022-10-23T00:55:17;5.27;;;4.30;;
9176;SDS011;4623;54.310;10.112;2022-10-23T00:57:44;6.47;;;4.67;;
9176;SDS011;4623;54.310;10.112;2022-10-23T01:00:13;9.60;;;5.90;;
9176;SDS011;4623;54.310;10.112;2022-10-23T01:02:42;9.63;;;5.27;;
9176;SDS011;4623;54.310;10.112;2022-10-23T01:05:08;5.93;;;4.67;;
9176;SDS011;4623;54.310;10.112;2022-10-23T01:07:41;8.93;;;4.30;;
9176;SDS011;4623;54.310;10.112;2022-10-23T01:10:22;6.73;;;5.13;;
9176;SDS011;4623;54.310;10.112;2022-10-23T01:15:23;7.33;;;4.97;;
9176;SDS011;4623;54.310;10.112;2022-10-23T01:18:03;6.73;;;4.23;;
9176;SDS011;4623;54.310;10.112;2022-10-23T01:20:36;7.83;;;5.20;;
9176;SDS011;4623;54.310;10.112;2022-10-23T01:25:57;8.53;;;5.20;;
9176;SDS011;4623;54.310;10.112;2022-10-23T01:31:22;6.50;;;5.00;;
9176;SDS011;4623;54.310;10.112;2022-10-23T01:33:56;9.00;;;5.57;;
9176;SDS011;4623;54.310;10.112;2022-10-23T01:36:29;8.47;;;5.33;;
9176;SDS011;4623;54.310;10.112;2022-10-23T01:39:02;10.43;;;5.67;;
9176;SDS011;4623;54.310;10.112;2022-10-23T01:41:41;8.70;;;5.70;;
9176;SDS011;4623;54.310;10.112;2022-10-23T01:44:13;6.50;;;4.90;;
9176;SDS011;4623;54.310;10.112;2022-10-23T01:46:46;5.57;;;4.77;;
9176;SDS011;4623;54.310;10.112;2022-10-23T01:49:13;5.03;;;4.47;;
9176;SDS011;4623;54.310;10.112;2022-10-23T01:51:41;5.63;;;4.40;;
9176;SDS011;4623;54.310;10.112;2022-10-23T01:54:11;7.73;;;4.47;;
9176;SDS011;4623;54.310;10.112;2022-10-23T01:56:40;6.17;;;4.60;;
9176;SDS011;4623;54.310;10.112;2022-10-23T01:59:10;8.97;;;5.17;;
9176;SDS011;4623;54.310;10.112;2022-10-23T02:01:39;6.53;;;3.80;;
9176;SDS011;4623;54.310;10.112;2022-10-23T02:04:08;13.40;;;5.63;;
9176;SDS011;4623;54.310;10.112;2022-10-23T02:06:36;5.57;;;4.90;;
9176;SDS011;4623;54.310;10.112;2022-10-23T02:09:02;7.63;;;4.47;;
9176;SDS011;4623;54.310;10.112;2022-10-23T02:11:28;4.80;;;4.30;;
9176;SDS011;4623;54.310;10.112;2022-10-23T02:13:58;9.43;;;5.40;;
9176;SDS011;4623;54.310;10.112;2022-10-23T02:21:50;13.80;;;6.43;;
9176;SDS011;4623;54.310;10.112;2022-10-23T02:24:30;9.80;;;5.27;;
9176;SDS011;4623;54.310;10.112;2022-10-23T02:27:01;12.30;;;5.13;;
9176;SDS011;4623;54.310;10.112;2022-10-23T02:29:33;12.20;;;5.90;;
9176;SDS011;4623;54.310;10.112;2022-10-23T02:32:03;10.00;;;6.07;;
9176;SDS011;4623;54.310;10.112;2022-10-23T02:34:31;13.90;;;6.17;;
9176;SDS011;4623;54.310;10.112;2022-10-23T02:36:57;11.60;;;5.90;;
9176;SDS011;4623;54.310;10.112;2022-10-23T02:39:23;11.43;;;5.97;;
9176;SDS011;4623;54.310;10.112;2022-10-23T02:44:24;8.67;;;5.80;;
9176;SDS011;4623;54.310;10.112;2022-10-23T02:47:23;7.70;;;5.23;;
9176;SDS011;4623;54.310;10.112;2022-10-23T02:55:43;7.27;;;6.43;;
9176;SDS011;4623;54.310;10.112;2022-10-23T02:58:36;11.97;;;6.00;;
9176;SDS011;4623;54.310;10.112;2022-10-23T03:01:14;8.33;;;5.97;;
9176;SDS011;4623;54.310;10.112;2022-10-23T03:03:48;10.77;;;5.90;;
9176;SDS011;4623;54.310;10.112;2022-10-23T03:06:23;10.50;;;6.47;;
9176;SDS011;4623;54.310;10.112;2022-10-23T03:08:53;13.57;;;8.43;;
9176;SDS011;4623;54.310;10.112;2022-10-23T03:11:37;9.70;;;8.37;;
9176;SDS011;4623;54.310;10.112;2022-10-23T03:14:03;7.33;;;6.63;;
9176;SDS011;4623;54.310;10.112;2022-10-23T03:16:28;11.63;;;7.40;;
9176;SDS011;4623;54.310;10.112;2022-10-23T03:18:54;12.37;;;7.40;;
9176;SDS011;4623;54.310;10.112;2022-10-23T03:21:20;9.30;;;7.60;;
9176;SDS011;4623;54.310;10.112;2022-10-23T03:23:46;15.83;;;7.13;;
9176;SDS011;4623;54.310;10.112;2022-10-23T03:26:11;26.27;;;9.20;;
9176;SDS011;4623;54.310;10.112;2022-10-23T03:28:37;36.83;;;9.70;;
9176;SDS011;4623;54.310;10.112;2022-10-23T03:31:03;8.10;;;7.30;;
9176;SDS011;4623;54.310;10.112;2022-10-23T03:33:29;7.00;;;6.40;;
9176;SDS011;4623;54.310;10.112;2022-10-23T03:35:55;11.40;;;7.37;;
9176;SDS011;4623;54.310;10.112;2022-10-23T03:38:21;8.50;;;6.97;;
9176;SDS011;4623;54.310;10.112;2022-10-23T03:40:46;9.10;;;7.93;;
9176;SDS011;4623;54.310;10.112;2022-10-23T03:43:12;11.70;;;8.43;;
9176;SDS011;4623;54.310;10.112;2022-10-23T03:45:38;18.60;;;8.73;;
9176;SDS011;4623;54.310;10.112;2022-10-23T03:48:04;10.27;;;7.83;;
9176;SDS011;4623;54.310;10.112;2022-10-23T03:50:30;10.17;;;8.40;;
9176;SDS011;4623;54.310;10.112;2022-10-23T03:52:56;14.03;;;7.20;;
9176;SDS011;4623;54.310;10.112;2022-10-23T03:55:21;8.37;;;6.63;;
9176;SDS011;4623;54.310;10.112;2022-10-23T03:57:49;17.97;;;6.97;;
9176;SDS011;4623;54.310;10.112;2022-10-23T04:00:15;12.00;;;7.53;;
9176;SDS011;4623;54.310;10.112;2022-10-23T04:02:40;8.43;;;6.67;;
9176;SDS011;4623;54.310;10.112;2022-10-23T04:05:06;13.47;;;7.20;;
9176;SDS011;4623;54.310;10.112;2022-10-23T04:07:32;8.27;;;6.50;;
9176;SDS011;4623;54.310;10.112;2022-10-23T04:09:57;8.47;;;6.40;;
9176;SDS011;4623;54.310;10.112;2022-10-23T04:12:23;35.43;;;8.40;;
9176;SDS011;4623;54.310;10.112;2022-10-23T04:14:49;63.97;;;9.73;;
9176;SDS011;4623;54.310;10.112;2022-10-23T04:17:14;12.30;;;7.90;;
9176;SDS011;4623;54.310;10.112;2022-10-23T04:19:40;16.77;;;8.07;;
9176;SDS011;4623;54.310;10.112;2022-10-23T04:22:05;6.73;;;6.13;;
9176;SDS011;4623;54.310;10.112;2022-10-23T04:24:31;13.27;;;6.83;;
9176;SDS011;4623;54.310;10.112;2022-10-23T04:26:57;18.63;;;7.80;;
9176;SDS011;4623;54.310;10.112;2022-10-23T04:29:22;13.00;;;8.17;;
9176;SDS011;4623;54.310;10.112;2022-10-23T04:31:49;12.23;;;7.53;;
9176;SDS011;4623;54.310;10.112;2022-10-23T04:34:15;18.93;;;8.80;;
9176;SDS011;4623;54.310;10.112;2022-10-23T04:36:42;31.23;;;9.40;;
9176;SDS011;4623;54.310;10.112;2022-10-23T04:39:08;13.57;;;7.57;;
9176;SDS011;4623;54.310;10.112;2022-10-23T04:41:34;23.03;;;8.27;;
9176;SDS011;4623;54.310;10.112;2022-10-23T04:44:02;21.00;;;8.97;;
9176;SDS011;4623;54.310;10.112;2022-10-23T04:46:28;21.13;;;8.37;;
9176;SDS011;4623;54.310;10.112;2022-10-23T04:48:53;9.17;;;6.60;;
9176;SDS011;4623;54.310;10.112;2022-10-23T04:51:19;21.37;;;8.37;;
9176;SDS011;4623;54.310;10.112;2022-10-23T04:53:46;8.87;;;7.50;;
9176;SDS011;4623;54.310;10.112;2022-10-23T04:56:12;13.20;;;7.27;;
9176;SDS011;4623;54.310;10.112;2022-10-23T04:58:39;15.27;;;7.97;;
9176;SDS011;4623;54.310;10.112;2022-10-23T05:01:05;23.13;;;7.43;;
9176;SDS011;4623;54.310;10.112;2022-10-23T05:03:34;46.83;;;10.73;;
9176;SDS011;4623;54.310;10.112;2022-10-23T05:06:00;76.03;;;10.23;;
9176;SDS011;4623;54.310;10.112;2022-10-23T05:08:26;41.30;;;9.10;;
9176;SDS011;4623;54.310;10.112;2022-10-23T05:10:52;22.60;;;8.03;;
9176;SDS011;4623;54.310;10.112;2022-10-23T05:13:17;9.97;;;6.93;;
9176;SDS011;4623;54.310;10.112;2022-10-23T05:15:50;7.97;;;7.17;;
9176;SDS011;4623;54.310;10.112;2022-10-23T05:18:19;17.77;;;8.00;;
9176;SDS011;4623;54.310;10.112;2022-10-23T05:20:49;89.60;;;11.87;;
9176;SDS011;4623;54.310;10.112;2022-10-23T05:23:19;28.80;;;9.00;;
9176;SDS011;4623;54.310;10.112;2022-10-23T05:25:47;19.77;;;9.07;;
9176;SDS011;4623;54.310;10.112;2022-10-23T05:28:13;45.00;;;9.23;;
9176;SDS011;4623;54.310;10.112;2022-10-23T05:30:38;12.47;;;8.37;;
9176;SDS011;4623;54.310;10.112;2022-10-23T05:33:05;16.33;;;8.30;;
9176;SDS011;4623;54.310;10.112;2022-10-23T05:35:30;6.63;;;6.10;;
9176;SDS011;4623;54.310;10.112;2022-10-23T05:37:56;6.97;;;6.47;;
9176;SDS011;4623;54.310;10.112;2022-10-23T05:40:24;6.23;;;5.63;;
9176;SDS011;4623;54.310;10.112;2022-10-23T05:42:50;34.27;;;7.20;;
9176;SDS011;4623;54.310;10.112;2022-10-23T05:45:15;30.17;;;8.73;;
9176;SDS011;4623;54.310;10.112;2022-10-23T05:47:44;10.77;;;7.23;;
9176;SDS011;4623;54.310;10.112;2022-10-23T05:50:10;25.77;;;8.23;;
9176;SDS011;4623;54.310;10.112;2022-10-23T05:52:36;61.83;;;9.03;;
9176;SDS011;4623;54.310;10.112;2022-10-23T05:55:02;82.23;;;10.60;;
9176;SDS011;4623;54.310;10.112;2022-10-23T05:57:30;10.60;;;6.47;;
9176;SDS011;4623;54.310;10.112;2022-10-23T05:59:56;36.13;;;8.37;;
9176;SDS011;4623;54.310;10.112;2022-10-23T06:02:22;38.90;;;9.13;;
9176;SDS011;4623;54.310;10.112;2022-10-23T06:04:47;14.40;;;7.30;;
9176;SDS011;4623;54.310;10.112;2022-10-23T06:07:13;8.10;;;7.30;;
9176;SDS011;4623;54.310;10.112;2022-10-23T06:09:39;25.77;;;7.33;;
9176;SDS011;4623;54.310;10.112;2022-10-23T06:12:04;26.27;;;7.50;;
9176;SDS011;4623;54.310;10.112;2022-10-23T06:14:30;44.07;;;8.27;;
9176;SDS011;4623;54.310;10.112;2022-10-23T06:16:55;25.23;;;8.43;;
9176;SDS011;4623;54.310;10.112;2022-10-23T06:19:21;39.70;;;8.87;;
9176;SDS011;4623;54.310;10.112;2022-10-23T06:21:47;59.90;;;9.93;;
9176;SDS011;4623;54.310;10.112;2022-10-23T06:24:12;47.03;;;7.93;;
9176;SDS011;4623;54.310;10.112;2022-10-23T06:26:38;33.43;;;8.73;;
9176;SDS011;4623;54.310;10.112;2022-10-23T06:29:03;81.63;;;23.00;;
9176;SDS011;4623;54.310;10.112;2022-10-23T06:31:29;45.27;;;10.33;;
9176;SDS011;4623;54.310;10.112;2022-10-23T06:33:55;47.97;;;9.90;;
9176;SDS011;4623;54.310;10.112;2022-10-23T06:36:22;15.40;;;6.83;;
9176;SDS011;4623;54.310;10.112;2022-10-23T06:38:48;61.67;;;10.70;;
9176;SDS011;4623;54.310;10.112;2022-10-23T06:41:20;34.27;;;8.27;;
9176;SDS011;4623;54.310;10.112;2022-10-23T06:43:46;8.97;;;7.97;;
9176;SDS011;4623;54.310;10.112;2022-10-23T06:46:13;7.03;;;6.27;;
9176;SDS011;4623;54.310;10.112;2022-10-23T06:48:42;6.37;;;5.87;;
9176;SDS011;4623;54.310;10.112;2022-10-23T06:51:08;30.73;;;8.30;;
9176;SDS011;4623;54.310;10.112;2022-10-23T06:53:36;18.13;;;8.03;;
9176;SDS011;4623;54.310;10.112;2022-10-23T06:56:03;44.83;;;9.43;;
9176;SDS011;4623;54.310;10.112;2022-10-23T06:58:29;26.80;;;9.03;;
9176;SDS011;4623;54.310;10.112;2022-10-23T07:00:57;7.27;;;6.67;;
9176;SDS011;4623;54.310;10.112;2022-10-23T07:03:25;7.23;;;6.63;;
9176;SDS011;4623;54.310;10.112;2022-10-23T07:05:51;30.40;;;7.93;;
9176;SDS011;4623;54.310;10.112;2022-10-23T07:08:16;13.33;;;7.83;;
9176;SDS011;4623;54.310;10.112;2022-10-23T07:10:42;7.57;;;6.87;;
9176;SDS011;4623;54.310;10.112;2022-10-23T07:13:08;46.17;;;9.27;;
9176;SDS011;4623;54.310;10.112;2022-10-23T07:15:34;30.37;;;9.20;;
9176;SDS011;4623;54.310;10.112;2022-10-23T07:18:01;35.37;;;8.80;;
9176;SDS011;4623;54.310;10.112;2022-10-23T07:20:26;6.60;;;6.10;;
9176;SDS011;4623;54.310;10.112;2022-10-23T07:22:52;12.77;;;6.73;;
9176;SDS011;4623;54.310;10.112;2022-10-23T07:25:20;6.83;;;6.23;;
9176;SDS011;4623;54.310;10.112;2022-10-23T07:27:46;20.80;;;7.23;;
9176;SDS011;4623;54.310;10.112;2022-10-23T07:30:13;87.87;;;11.10;;
9176;SDS011;4623;54.310;10.112;2022-10-23T07:32:39;16.07;;;7.63;;
9176;SDS011;4623;54.310;10.112;2022-10-23T07:35:05;42.30;;;9.70;;
9176;SDS011;4623;54.310;10.112;2022-10-23T07:37:31;75.60;;;12.03;;
9176;SDS011;4623;54.310;10.112;2022-10-23T07:39:57;26.60;;;8.47;;
9176;SDS011;4623;54.310;10.112;2022-10-23T07:42:23;27.10;;;8.37;;
9176;SDS011;4623;54.310;10.112;2022-10-23T07:44:48;26.40;;;8.63;;
9176;SDS011;4623;54.310;10.112;2022-10-23T07:47:14;7.20;;;6.60;;
9176;SDS011;4623;54.310;10.112;2022-10-23T07:49:40;16.13;;;7.53;;
9176;SDS011;4623;54.310;10.112;2022-10-23T07:52:05;9.70;;;6.97;;
9176;SDS011;4623;54.310;10.112;2022-10-23T07:54:31;62.37;;;10.33;;
9176;SDS011;4623;54.310;10.112;2022-10-23T07:56:57;10.43;;;5.90;;
9176;SDS011;4623;54.310;10.112;2022-10-23T07:59:23;21.17;;;6.30;;
9176;SDS011;4623;54.310;10.112;2022-10-23T08:01:50;32.97;;;7.23;;
9176;SDS011;4623;54.310;10.112;2022-10-23T08:04:16;45.63;;;7.57;;
9176;SDS011;4623;54.310;10.112;2022-10-23T08:06:43;14.60;;;6.07;;
9176;SDS011;4623;54.310;10.112;2022-10-23T08:09:09;8.87;;;5.63;;
9176;SDS011;4623;54.310;10.112;2022-10-23T08:11:34;38.37;;;7.43;;
9176;SDS011;4623;54.310;10.112;2022-10-23T08:14:01;12.63;;;6.60;;
9176;SDS011;4623;54.310;10.112;2022-10-23T08:16:28;45.77;;;8.93;;
9176;SDS011;4623;54.310;10.112;2022-10-23T08:18:55;31.87;;;9.47;;
9176;SDS011;4623;54.310;10.112;2022-10-23T08:21:20;6.17;;;5.63;;
9176;SDS011;4623;54.310;10.112;2022-10-23T08:23:46;6.83;;;6.20;;
9176;SDS011;4623;54.310;10.112;2022-10-23T08:26:12;14.27;;;7.83;;
9176;SDS011;4623;54.310;10.112;2022-10-23T08:28:37;19.03;;;6.90;;
9176;SDS011;4623;54.310;10.112;2022-10-23T08:31:10;8.77;;;7.03;;
9176;SDS011;4623;54.310;10.112;2022-10-23T08:33:38;11.83;;;7.40;;
9176;SDS011;4623;54.310;10.112;2022-10-23T08:36:04;20.53;;;8.67;;
9176;SDS011;4623;54.310;10.112;2022-10-23T08:38:30;11.13;;;6.40;;
9176;SDS011;4623;54.310;10.112;2022-10-23T08:40:57;14.33;;;6.77;;
9176;SDS011;4623;54.310;10.112;2022-10-23T08:43:33;8.60;;;7.67;;
9176;SDS011;4623;54.310;10.112;2022-10-23T08:46:03;25.30;;;7.80;;
9176;SDS011;4623;54.310;10.112;2022-10-23T08:48:44;8.10;;;5.93;;
9176;SDS011;4623;54.310;10.112;2022-10-23T08:51:15;7.70;;;6.97;;
9176;SDS011;4623;54.310;10.112;2022-10-23T08:53:49;7.77;;;7.00;;
9176;SDS011;4623;54.310;10.112;2022-10-23T08:56:24;18.30;;;8.77;;
9176;SDS011;4623;54.310;10.112;2022-10-23T08:59:08;10.80;;;7.93;;
9176;SDS011;4623;54.310;10.112;2022-10-23T09:01:45;37.07;;;9.70;;
9176;SDS011;4623;54.310;10.112;2022-10-23T09:04:16;17.30;;;7.53;;
9176;SDS011;4623;54.310;10.112;2022-10-23T09:09:32;9.23;;;8.40;;
9176;SDS011;4623;54.310;10.112;2022-10-23T09:17:36;8.60;;;7.80;;
9176;SDS011;4623;54.310;10.112;2022-10-23T09:22:49;12.67;;;8.93;;
9176;SDS011;4623;54.310;10.112;2022-10-23T09:25:27;13.67;;;8.67;;
9176;SDS011;4623;54.310;10.112;2022-10-23T09:27:56;7.87;;;7.20;;
9176;SDS011;4623;54.310;10.112;2022-10-23T09:30:34;13.30;;;7.87;;
9176;SDS011;4623;54.310;10.112;2022-10-23T09:33:12;8.50;;;7.53;;
9176;SDS011;4623;54.310;10.112;2022-10-23T09:35:50;8.73;;;7.93;;
9176;SDS011;4623;54.310;10.112;2022-10-23T09:38:38;10.27;;;9.27;;
9176;SDS011;4623;54.310;10.112;2022-10-23T09:41:18;14.07;;;12.47;;
9176;SDS011;4623;54.310;10.112;2022-10-23T09:43:58;10.23;;;9.07;;
9176;SDS011;4623;54.310;10.112;2022-10-23T09:46:39;9.97;;;9.07;;
9176;SDS011;4623;54.310;10.112;2022-10-23T09:51:55;11.93;;;10.83;;
9176;SDS011;4623;54.310;10.112;2022-10-23T09:54:28;12.07;;;10.40;;
9176;SDS011;4623;54.310;10.112;2022-10-23T09:56:58;12.80;;;11.47;;
9176;SDS011;4623;54.310;10.112;2022-10-23T09:59:30;14.17;;;12.77;;
9176;SDS011;4623;54.310;10.112;2022-10-23T10:01:57;12.73;;;11.43;;
9176;SDS011;4623;54.310;10.112;2022-10-23T10:04:34;11.17;;;10.17;;
9176;SDS011;4623;54.310;10.112;2022-10-23T10:07:03;10.07;;;8.83;;
9176;SDS011;4623;54.310;10.112;2022-10-23T10:09:31;13.87;;;12.47;;
9176;SDS011;4623;54.310;10.112;2022-10-23T10:12:09;13.07;;;11.87;;
9176;SDS011;4623;54.310;10.112;2022-10-23T10:15:03;12.70;;;10.67;;
9176;SDS011;4623;54.310;10.112;2022-10-23T10:21:01;16.23;;;14.53;;
9176;SDS011;4623;54.310;10.112;2022-10-23T10:23:46;15.93;;;12.97;;
9176;SDS011;4623;54.310;10.112;2022-10-23T10:29:31;12.53;;;11.23;;
9176;SDS011;4623;54.310;10.112;2022-10-23T10:40:39;15.70;;;14.00;;
9176;SDS011;4623;54.310;10.112;2022-10-23T10:43:14;13.47;;;11.93;;
9176;SDS011;4623;54.310;10.112;2022-10-23T10:45:46;16.90;;;11.80;;
9176;SDS011;4623;54.310;10.112;2022-10-23T10:50:59;12.33;;;11.00;;
9176;SDS011;4623;54.310;10.112;2022-10-23T10:56:10;9.70;;;8.45;;
9176;SDS011;4623;54.310;10.112;2022-10-23T10:58:58;14.25;;;10.25;;
9176;SDS011;4623;54.310;10.112;2022-10-23T11:06:42;9.95;;;8.95;;
9176;SDS011;4623;54.310;10.112;2022-10-23T11:11:45;13.83;;;11.30;;
9176;SDS011;4623;54.310;10.112;2022-10-23T11:14:28;11.97;;;10.40;;
9176;SDS011;4623;54.310;10.112;2022-10-23T11:17:13;13.43;;;10.90;;
9176;SDS011;4623;54.310;10.112;2022-10-23T11:19:46;11.57;;;9.90;;
9176;SDS011;4623;54.310;10.112;2022-10-23T11:22:35;10.57;;;9.33;;
9176;SDS011;4623;54.310;10.112;2022-10-23T11:38:18;11.50;;;8.63;;
9176;SDS011;4623;54.310;10.112;2022-10-23T11:40:59;7.67;;;6.87;;
9176;SDS011;4623;54.310;10.112;2022-10-23T11:43:32;10.80;;;9.40;;
9176;SDS011;4623;54.310;10.112;2022-10-23T11:48:49;9.47;;;7.60;;
9176;SDS011;4623;54.310;10.112;2022-10-23T11:59:33;12.07;;;10.07;;
9176;SDS011;4623;54.310;10.112;2022-10-23T12:02:16;10.00;;;8.15;;
9176;SDS011;4623;54.310;10.112;2022-10-23T12:04:48;8.45;;;7.38;;
9176;SDS011;4623;54.310;10.112;2022-10-23T12:07:23;9.75;;;7.97;;
9176;SDS011;4623;54.310;10.112;2022-10-23T12:12:35;12.23;;;10.02;;
9176;SDS011;4623;54.310;10.112;2022-10-23T12:17:42;10.07;;;8.50;;
9176;SDS011;4623;54.310;10.112;2022-10-23T12:30:41;8.55;;;6.93;;
9176;SDS011;4623;54.310;10.112;2022-10-23T12:38:48;8.30;;;7.53;;
9176;SDS011;4623;54.310;10.112;2022-10-23T12:43:56;9.02;;;6.78;;
9176;SDS011;4623;54.310;10.112;2022-10-23T12:46:33;7.72;;;6.82;;
9176;SDS011;4623;54.310;10.112;2022-10-23T12:49:10;8.13;;;6.78;;
9176;SDS011;4623;54.310;10.112;2022-10-23T12:51:41;6.30;;;5.13;;
9176;SDS011;4623;54.310;10.112;2022-10-23T12:54:17;11.48;;;7.75;;
9176;SDS011;4623;54.310;10.112;2022-10-23T12:56:44;8.45;;;6.43;;
9176;SDS011;4623;54.310;10.112;2022-10-23T12:59:15;7.78;;;6.28;;
9176;SDS011;4623;54.310;10.112;2022-10-23T13:01:52;7.30;;;6.30;;
9176;SDS011;4623;54.310;10.112;2022-10-23T13:06:53;6.85;;;5.43;;
9176;SDS011;4623;54.310;10.112;2022-10-23T13:11:50;9.27;;;6.05;;
9176;SDS011;4623;54.310;10.112;2022-10-23T13:16:58;6.07;;;4.95;;
9176;SDS011;4623;54.310;10.112;2022-10-23T13:19:32;7.93;;;5.33;;
9176;SDS011;4623;54.310;10.112;2022-10-23T13:21:58;8.77;;;5.73;;
9176;SDS011;4623;54.310;10.112;2022-10-23T13:24:26;6.30;;;5.20;;
9176;SDS011;4623;54.310;10.112;2022-10-23T13:26:53;5.43;;;4.70;;
9176;SDS011;4623;54.310;10.112;2022-10-23T13:31:46;6.40;;;4.90;;
9176;SDS011;4623;54.310;10.112;2022-10-23T13:34:17;5.37;;;4.13;;
9176;SDS011;4623;54.310;10.112;2022-10-23T13:36:52;7.67;;;4.80;;
9176;SDS011;4623;54.310;10.112;2022-10-23T13:39:23;5.83;;;5.10;;
9176;SDS011;4623;54.310;10.112;2022-10-23T13:41:53;5.37;;;4.87;;
9176;SDS011;4623;54.310;10.112;2022-10-23T13:44:20;10.00;;;4.77;;
9176;SDS011;4623;54.310;10.112;2022-10-23T13:46:47;4.13;;;3.47;;
9176;SDS011;4623;54.310;10.112;2022-10-23T13:49:13;8.40;;;5.27;;
9176;SDS011;4623;54.310;10.112;2022-10-23T13:51:41;5.70;;;3.60;;
9176;SDS011;4623;54.310;10.112;2022-10-23T13:54:16;5.80;;;4.07;;
9176;SDS011;4623;54.310;10.112;2022-10-23T13:56:45;4.07;;;3.67;;
9176;SDS011;4623;54.310;10.112;2022-10-23T13:59:11;5.03;;;3.70;;
9176;SDS011;4623;54.310;10.112;2022-10-23T14:01:37;7.00;;;4.00;;
9176;SDS011;4623;54.310;10.112;2022-10-23T14:04:03;3.60;;;3.00;;
9176;SDS011;4623;54.310;10.112;2022-10-23T14:06:30;5.00;;;3.70;;
9176;SDS011;4623;54.310;10.112;2022-10-23T14:08:56;9.17;;;5.00;;
9176;SDS011;4623;54.310;10.112;2022-10-23T14:11:22;6.77;;;4.50;;
9176;SDS011;4623;54.310;10.112;2022-10-23T14:13:49;5.23;;;3.90;;
9176;SDS011;4623;54.310;10.112;2022-10-23T14:16:16;5.60;;;3.87;;
9176;SDS011;4623;54.310;10.112;2022-10-23T14:18:43;4.97;;;3.80;;
9176;SDS011;4623;54.310;10.112;2022-10-23T14:21:13;5.57;;;3.80;;
9176;SDS011;4623;54.310;10.112;2022-10-23T14:23:40;7.27;;;3.93;;
9176;SDS011;4623;54.310;10.112;2022-10-23T14:26:07;4.87;;;3.60;;
9176;SDS011;4623;54.310;10.112;2022-10-23T14:28:34;4.70;;;3.50;;
9176;SDS011;4623;54.310;10.112;2022-10-23T14:31:07;6.13;;;4.63;;
9176;SDS011;4623;54.310;10.112;2022-10-23T14:33:34;8.47;;;4.20;;
9176;SDS011;4623;54.310;10.112;2022-10-23T14:36:00;4.17;;;3.60;;
9176;SDS011;4623;54.310;10.112;2022-10-23T14:38:25;5.73;;;4.37;;
9176;SDS011;4623;54.310;10.112;2022-10-23T14:40:51;9.83;;;4.80;;
9176;SDS011;4623;54.310;10.112;2022-10-23T14:43:17;5.30;;;4.07;;
9176;SDS011;4623;54.310;10.112;2022-10-23T14:45:43;4.87;;;3.50;;
9176;SDS011;4623;54.310;10.112;2022-10-23T14:48:08;6.60;;;4.17;;
9176;SDS011;4623;54.310;10.112;2022-10-23T14:50:35;5.33;;;4.30;;
9176;SDS011;4623;54.310;10.112;2022-10-23T14:53:06;7.50;;;4.43;;
9176;SDS011;4623;54.310;10.112;2022-10-23T14:55:31;9.50;;;4.60;;
9176;SDS011;4623;54.310;10.112;2022-10-23T14:57:57;6.50;;;4.63;;
9176;SDS011;4623;54.310;10.112;2022-10-23T15:00:22;7.73;;;3.97;;
9176;SDS011;4623;54.310;10.112;2022-10-23T15:02:48;5.30;;;4.17;;
9176;SDS011;4623;54.310;10.112;2022-10-23T15:05:14;4.50;;;3.87;;
9176;SDS011;4623;54.310;10.112;2022-10-23T15:07:40;5.70;;;4.60;;
9176;SDS011;4623;54.310;10.112;2022-10-23T15:10:06;10.17;;;4.77;;
9176;SDS011;4623;54.310;10.112;2022-10-23T15:12:33;7.30;;;4.50;;
9176;SDS011;4623;54.310;10.112;2022-10-23T15:14:59;6.43;;;4.30;;
9176;SDS011;4623;54.310;10.112;2022-10-23T15:17:25;6.73;;;4.90;;
9176;SDS011;4623;54.310;10.112;2022-10-23T15:19:51;8.27;;;4.30;;
9176;SDS011;4623;54.310;10.112;2022-10-23T15:22:16;6.87;;;4.90;;
9176;SDS011;4623;54.310;10.112;2022-10-23T15:24:43;7.30;;;5.47;;
9176;SDS011;4623;54.310;10.112;2022-10-23T15:27:10;8.17;;;5.10;;
9176;SDS011;4623;54.310;10.112;2022-10-23T15:29:35;6.00;;;4.47;;
9176;SDS011;4623;54.310;10.112;2022-10-23T15:32:01;7.10;;;4.40;;
9176;SDS011;4623;54.310;10.112;2022-10-23T15:34:29;8.50;;;5.20;;
9176;SDS011;4623;54.310;10.112;2022-10-23T15:36:56;6.10;;;5.50;;
9176;SDS011;4623;54.310;10.112;2022-10-23T15:39:25;5.80;;;4.83;;
9176;SDS011;4623;54.310;10.112;2022-10-23T15:41:53;6.50;;;4.60;;
9176;SDS011;4623;54.310;10.112;2022-10-23T15:44:20;4.53;;;4.13;;
9176;SDS011;4623;54.310;10.112;2022-10-23T15:46:47;5.37;;;4.07;;
9176;SDS011;4623;54.310;10.112;2022-10-23T15:49:13;8.33;;;5.60;;
9176;SDS011;4623;54.310;10.112;2022-10-23T15:51:39;7.27;;;4.80;;
9176;SDS011;4623;54.310;10.112;2022-10-23T15:54:05;5.50;;;4.47;;
9176;SDS011;4623;54.310;10.112;2022-10-23T15:56:33;9.10;;;4.67;;
9176;SDS011;4623;54.310;10.112;2022-10-23T15:58:59;7.20;;;4.57;;
9176;SDS011;4623;54.310;10.112;2022-10-23T16:01:24;8.20;;;4.30;;
9176;SDS011;4623;54.310;10.112;2022-10-23T16:03:50;6.70;;;4.13;;
9176;SDS011;4623;54.310;10.112;2022-10-23T16:06:16;7.40;;;4.63;;
9176;SDS011;4623;54.310;10.112;2022-10-23T16:08:43;8.53;;;4.37;;
9176;SDS011;4623;54.310;10.112;2022-10-23T16:11:16;8.13;;;5.33;;
9176;SDS011;4623;54.310;10.112;2022-10-23T16:13:43;9.23;;;5.33;;
9176;SDS011;4623;54.310;10.112;2022-10-23T16:16:10;4.17;;;3.77;;
9176;SDS011;4623;54.310;10.112;2022-10-23T16:18:36;6.43;;;4.93;;
9176;SDS011;4623;54.310;10.112;2022-10-23T16:21:02;9.40;;;5.00;;
9176;SDS011;4623;54.310;10.112;2022-10-23T16:23:27;5.30;;;4.30;;
9176;SDS011;4623;54.310;10.112;2022-10-23T16:25:53;5.87;;;4.10;;
9176;SDS011;4623;54.310;10.112;2022-10-23T16:28:19;6.97;;;3.83;;
9176;SDS011;4623;54.310;10.112;2022-10-23T16:30:45;7.07;;;4.33;;
9176;SDS011;4623;54.310;10.112;2022-10-23T16:33:11;7.53;;;4.33;;
9176;SDS011;4623;54.310;10.112;2022-10-23T16:35:37;7.17;;;5.20;;
9176;SDS011;4623;54.310;10.112;2022-10-23T16:38:03;3.77;;;3.47;;
9176;SDS011;4623;54.310;10.112;2022-10-23T16:40:29;4.87;;;3.90;;
9176;SDS011;4623;54.310;10.112;2022-10-23T16:42:55;6.63;;;4.37;;
9176;SDS011;4623;54.310;10.112;2022-10-23T16:45:22;7.47;;;4.77;;
9176;SDS011;4623;54.310;10.112;2022-10-23T16:47:47;6.43;;;4.17;;
9176;SDS011;4623;54.310;10.112;2022-10-23T16:50:13;4.17;;;3.57;;
9176;SDS011;4623;54.310;10.112;2022-10-23T16:52:39;7.43;;;4.83;;
9176;SDS011;4623;54.310;10.112;2022-10-23T16:55:05;6.57;;;4.73;;
9176;SDS011;4623;54.310;10.112;2022-10-23T16:57:33;4.63;;;3.63;;
9176;SDS011;4623;54.310;10.112;2022-10-23T16:59:59;7.03;;;3.80;;
9176;SDS011;4623;54.310;10.112;2022-10-23T17:02:24;6.07;;;4.30;;
9176;SDS011;4623;54.310;10.112;2022-10-23T17:04:50;5.43;;;4.70;;